Time;durP1;ratioP1;P1;durP2;ratioP2;P2;SDS_P1;SDS_P2;PMS_P1;PMS_P2;Temp;Humidity;BMP_temperature;BMP_pressure;BME280_temperature;BME280_humidity;BME280_pressure;Samples;Min_cycle;Max_cycle;Signal;HPM_P1;HPM_P2
2021/11/19 00:01:21;;;;;;;23.58;12.07;;;5.90;99.90;;;;;;5010911;28;20096;-66
2021/11/19 00:03:48;;;;;;;25.27;11.98;;;5.80;99.90;;;;;;5010879;28;20054;-66
2021/11/19 00:06:16;;;;;;;29.33;11.80;;;5.80;99.90;;;;;;5010126;28;20050;-66
2021/11/19 00:08:43;;;;;;;27.85;12.18;;;5.80;99.90;;;;;;5011115;28;20143;-66
2021/11/19 00:11:27;;;;;;;26.27;12.07;;;5.80;99.90;;;;;;5010431;28;20109;-66
2021/11/19 00:13:54;;;;;;;26.02;12.52;;;5.80;99.90;;;;;;5010762;28;20077;-66
2021/11/19 00:16:26;;;;;;;30.00;11.90;;;5.90;99.90;;;;;;5009737;28;20112;-66
2021/11/19 00:18:53;;;;;;;27.40;11.63;;;5.80;99.90;;;;;;5010528;28;20093;-66
2021/11/19 00:21:21;;;;;;;28.27;12.60;;;5.80;99.90;;;;;;5010341;28;20356;-66
2021/11/19 00:23:49;;;;;;;28.58;13.57;;;5.80;99.90;;;;;;5010426;28;20116;-66
2021/11/19 00:26:19;;;;;;;26.33;11.68;;;5.80;99.90;;;;;;5010197;28;20085;-66
2021/11/19 00:28:46;;;;;;;34.30;13.35;;;5.70;99.90;;;;;;5010316;28;20057;-66
2021/11/19 00:31:15;;;;;;;24.88;11.88;;;5.70;99.90;;;;;;5010321;28;20094;-66
2021/11/19 00:33:43;;;;;;;26.98;12.07;;;5.80;99.90;;;;;;5010229;28;20108;-66
2021/11/19 00:36:14;;;;;;;33.30;13.70;;;5.80;99.90;;;;;;5010099;28;20054;-66
2021/11/19 00:38:42;;;;;;;25.80;12.00;;;5.80;99.90;;;;;;5010552;28;20489;-66
2021/11/19 00:41:11;;;;;;;26.02;12.25;;;5.80;99.90;;;;;;5010084;28;20096;-66
2021/11/19 00:43:40;;;;;;;28.42;12.63;;;5.80;99.90;;;;;;5010054;28;20054;-66
2021/11/19 00:46:08;;;;;;;28.92;12.38;;;5.70;99.90;;;;;;5009466;28;20096;-66
2021/11/19 00:48:37;;;;;;;29.48;11.95;;;5.80;99.90;;;;;;5009644;28;20050;-66
2021/11/19 00:51:07;;;;;;;31.92;12.75;;;5.90;99.90;;;;;;5010213;28;20045;-66
2021/11/19 00:53:36;;;;;;;27.80;12.63;;;5.90;99.90;;;;;;5009173;28;20049;-66
2021/11/19 00:56:03;;;;;;;28.92;12.05;;;5.90;99.90;;;;;;5009367;28;20050;-66
2021/11/19 00:58:30;;;;;;;31.17;13.77;;;5.90;99.90;;;;;;5010172;28;20089;-66
2021/11/19 01:01:18;;;;;;;28.60;12.50;;;5.90;99.90;;;;;;5009648;28;20108;-66
2021/11/19 01:03:44;;;;;;;;;;;5.90;99.90;;;;;;5010301;28;20108;-66
2021/11/19 01:06:12;;;;;;;25.08;11.70;;;5.90;99.90;;;;;;5009309;28;19972;-66
2021/11/19 01:08:39;;;;;;;27.65;12.63;;;5.90;99.90;;;;;;5009923;28;20510;-66
2021/11/19 01:11:09;;;;;;;28.80;12.05;;;6.00;99.90;;;;;;5010023;28;20112;-66
2021/11/19 01:13:38;;;;;;;29.50;12.40;;;6.00;99.90;;;;;;5009644;28;20103;-66
2021/11/19 01:16:08;;;;;;;32.85;12.93;;;5.90;99.90;;;;;;5008849;28;20100;-66
2021/11/19 01:18:39;;;;;;;24.63;12.20;;;5.90;99.90;;;;;;5009948;28;20049;-66
2021/11/19 01:21:08;;;;;;;27.50;12.90;;;5.90;99.90;;;;;;5009769;28;20525;-66
2021/11/19 01:23:36;;;;;;;27.63;11.68;;;5.90;99.90;;;;;;5009530;28;20105;-66
2021/11/19 01:26:07;;;;;;;29.88;11.98;;;6.00;99.90;;;;;;5008666;28;20082;-66
2021/11/19 01:28:34;;;;;;;24.83;12.40;;;6.00;99.90;;;;;;5009926;28;20478;-66
2021/11/19 01:31:06;;;;;;;24.58;12.20;;;6.00;99.90;;;;;;5009586;28;20054;-66
2021/11/19 01:33:34;;;;;;;27.10;11.35;;;6.00;99.90;;;;;;5009530;28;20077;-66
2021/11/19 01:36:02;;;;;;;28.17;11.40;;;6.00;99.90;;;;;;5008820;28;20505;-66
2021/11/19 01:38:30;;;;;;;28.73;12.52;;;6.00;99.90;;;;;;5009429;28;20050;-66
2021/11/19 01:41:00;;;;;;;27.85;12.23;;;6.10;99.90;;;;;;5009477;28;20049;-66
2021/11/19 01:43:28;;;;;;;21.73;10.32;;;6.00;99.90;;;;;;5009382;28;20085;-66
2021/11/19 01:46:07;;;;;;;30.05;11.65;;;6.00;99.90;;;;;;5008721;28;20050;-66
2021/11/19 01:48:40;;;;;;;28.83;11.75;;;6.00;99.90;;;;;;5009680;28;20046;-66
2021/11/19 01:51:15;;;;;;;21.63;10.60;;;6.00;99.90;;;;;;5009326;28;20054;-66
2021/11/19 01:53:45;;;;;;;33.17;12.32;;;6.10;99.90;;;;;;5009479;28;20147;-66
2021/11/19 01:56:15;;;;;;;28.42;12.10;;;6.10;99.90;;;;;;5008693;28;20107;-66
2021/11/19 01:58:45;;;;;;;24.98;11.73;;;6.10;99.90;;;;;;5009314;28;20104;-66
2021/11/19 02:01:17;;;;;;;25.88;12.23;;;6.20;99.90;;;;;;5009733;28;20057;-66
2021/11/19 02:03:57;;;;;;;26.67;10.77;;;6.20;99.90;;;;;;5009176;28;20116;-67
2021/11/19 02:06:28;;;;;;;30.85;11.13;;;6.20;99.90;;;;;;5012178;28;20049;-66
2021/11/19 02:08:56;;;;;;;26.70;10.52;;;6.30;99.90;;;;;;5013037;28;20137;-66
2021/11/19 02:11:34;;;;;;;29.08;9.57;;;6.30;99.90;;;;;;5012844;28;20046;-66
2021/11/19 02:14:06;;;;;;;21.40;9.27;;;6.40;99.90;;;;;;5012618;28;20096;-66
2021/11/19 02:16:36;;;;;;;24.42;10.60;;;6.40;99.90;;;;;;5011996;28;20112;-66
2021/11/19 02:19:07;;;;;;;24.55;9.93;;;6.40;99.90;;;;;;5012891;28;20498;-66
2021/11/19 02:21:40;;;;;;;28.67;10.15;;;6.50;99.90;;;;;;5012892;28;20050;-66
2021/11/19 02:24:12;;;;;;;25.20;9.82;;;6.50;99.90;;;;;;5012768;28;20081;-66
2021/11/19 02:26:41;;;;;;;23.58;10.25;;;6.50;99.90;;;;;;5012322;28;20060;-66
2021/11/19 02:29:09;;;;;;;24.95;8.85;;;6.60;99.90;;;;;;5012823;28;20054;-67
2021/11/19 02:31:47;;;;;;;23.55;9.18;;;6.60;99.90;;;;;;5012391;28;20085;-66
2021/11/19 02:34:14;;;;;;;29.98;10.30;;;6.60;99.90;;;;;;5012981;28;20322;-66
2021/11/19 02:36:46;;;;;;;27.65;10.23;;;6.60;99.90;;;;;;5012041;28;20093;-66
2021/11/19 02:39:17;;;;;;;27.25;10.57;;;6.60;99.90;;;;;;5012580;28;20053;-66
2021/11/19 02:41:47;;;;;;;26.48;10.20;;;6.60;99.90;;;;;;5012324;28;20457;-66
2021/11/19 02:44:16;;;;;;;26.65;10.55;;;6.60;99.90;;;;;;5012673;28;20144;-66
2021/11/19 02:46:55;;;;;;;24.08;11.43;;;6.50;99.90;;;;;;5011647;28;20089;-66
2021/11/19 02:49:23;;;;;;;29.42;11.25;;;6.50;99.90;;;;;;5012146;28;20089;-66
2021/11/19 08:54:08;;;;;;;36.85;15.98;;;7.10;99.90;;;;;;5072004;22;20484;-66
2021/11/19 08:56:37;;;;;;;30.08;13.13;;;7.10;99.90;;;;;;5035044;28;20116;-66
2021/11/19 08:59:05;;;;;;;26.38;12.50;;;7.20;99.90;;;;;;5035723;28;20052;-66
2021/11/19 09:01:33;;;;;;;24.75;12.52;;;7.30;99.90;;;;;;5034819;28;20050;-66
2021/11/19 09:04:00;;;;;;;25.83;11.93;;;7.30;99.90;;;;;;5033507;28;20080;-65
2021/11/19 09:06:27;;;;;;;23.65;11.82;;;7.40;99.90;;;;;;5033428;28;20045;-65
2021/11/19 09:08:54;;;;;;;28.48;13.27;;;7.30;99.90;;;;;;5033478;28;20080;-65
2021/11/19 09:11:25;;;;;;;24.38;12.07;;;7.20;99.90;;;;;;5034163;28;20551;-66
2021/11/19 09:13:55;;;;;;;23.48;10.80;;;7.20;99.90;;;;;;5032459;28;20103;-65
2021/11/19 09:16:25;;;;;;;24.30;12.25;;;7.30;99.90;;;;;;5030619;28;20401;-65
2021/11/19 09:19:11;;;;;;;26.42;12.50;;;7.50;99.90;;;;;;5031931;28;20123;-66
2021/11/19 09:21:44;;;;;;;22.73;11.32;;;7.60;99.90;;;;;;5030307;28;20049;-66
2021/11/19 09:24:15;;;;;;;24.40;11.40;;;7.70;99.90;;;;;;5029745;28;20054;-65
2021/11/19 09:26:45;;;;;;;22.80;11.00;;;7.80;99.90;;;;;;5029240;28;20444;-65
2021/11/19 09:29:16;;;;;;;24.60;10.02;;;7.80;99.90;;;;;;5029785;28;20064;-66
2021/11/19 09:31:45;;;;;;;21.52;11.13;;;7.80;99.90;;;;;;5030737;28;20053;-66
2021/11/19 09:34:13;;;;;;;23.67;11.27;;;7.90;99.90;;;;;;5030363;28;20489;-68
2021/11/19 09:36:41;;;;;;;21.50;11.00;;;7.80;99.90;;;;;;5029274;28;20068;-65
2021/11/19 09:39:11;;;;;;;21.73;11.43;;;8.00;99.90;;;;;;5030080;28;20091;-66
2021/11/19 09:41:56;;;;;;;19.85;10.40;;;7.80;99.90;;;;;;5030807;28;20054;-66
2021/11/19 09:45:17;;;;;;;21.70;10.75;;;7.80;99.90;;;;;;5029547;28;20156;-66
2021/11/19 09:48:22;;;;;;;22.52;9.65;;;7.90;99.90;;;;;;5004904;28;20099;-65
2021/11/19 09:51:26;;;;;;;18.73;8.82;;;8.10;99.90;;;;;;5029352;28;20058;-66
2021/11/19 09:54:35;;;;;;;21.02;9.75;;;8.00;99.90;;;;;;5028964;28;20509;-65
2021/11/19 09:57:41;;;;;;;19.48;10.15;;;7.80;99.90;;;;;;5008839;28;20061;-65
2021/11/19 10:00:18;;;;;;;19.73;9.30;;;7.90;99.90;;;;;;5029094;28;20049;-66
2021/11/19 10:03:11;;;;;;;17.08;9.13;;;7.90;99.90;;;;;;5029322;28;20057;-65
2021/11/19 10:05:51;;;;;;;18.05;8.80;;;7.90;99.90;;;;;;5028325;28;20046;-66
2021/11/19 10:08:34;;;;;;;21.77;9.48;;;7.80;99.90;;;;;;5029674;28;20049;-65
2021/11/19 10:11:12;;;;;;;22.52;10.10;;;7.70;99.90;;;;;;5029162;28;20119;-65
2021/11/19 10:14:07;;;;;;;20.23;9.57;;;7.60;99.90;;;;;;5029569;28;20370;-66
2021/11/19 10:16:52;;;;;;;21.17;9.75;;;7.70;99.90;;;;;;4985246;28;20057;-66
2021/11/19 10:19:23;;;;;;;20.67;10.68;;;7.80;99.90;;;;;;5028919;28;20144;-65
2021/11/19 10:22:08;;;;;;;20.88;10.13;;;7.80;99.90;;;;;;5029189;28;20111;-65
2021/11/19 10:24:41;;;;;;;23.05;10.20;;;7.80;99.90;;;;;;5029177;28;20460;-68
2021/11/19 10:27:11;;;;;;;23.15;10.65;;;8.00;99.90;;;;;;5032286;28;20046;-67
2021/11/19 10:29:44;;;;;;;21.38;9.52;;;7.90;99.90;;;;;;5032959;28;20494;-66
2021/11/19 10:32:14;;;;;;;21.88;9.73;;;7.70;99.90;;;;;;5032953;28;20057;-66
2021/11/19 10:34:47;;;;;;;20.20;9.05;;;7.70;99.90;;;;;;5032512;28;20071;-66
2021/11/19 10:37:53;;;;;;;21.15;9.60;;;7.70;99.90;;;;;;5033054;28;20468;-66
2021/11/19 10:40:58;;;;;;;19.38;9.48;;;7.70;99.90;;;;;;4988820;28;20097;-66
2021/11/19 10:43:56;;;;;;;17.98;9.23;;;7.70;99.90;;;;;;5032601;28;20049;-66
2021/11/19 10:46:46;;;;;;;22.73;10.00;;;7.80;99.90;;;;;;5025365;28;20081;-66
2021/11/19 10:49:43;;;;;;;18.58;9.25;;;7.80;99.90;;;;;;5032936;28;20061;-66
2021/11/19 10:52:42;;;;;;;19.35;9.02;;;7.70;99.90;;;;;;5032658;28;20062;-67
2021/11/19 10:56:06;;;;;;;18.33;8.45;;;7.90;99.90;;;;;;5031749;28;20053;-67
2021/11/19 10:58:51;;;;;;;18.05;8.73;;;7.70;99.90;;;;;;5032193;28;20092;-67
2021/11/19 11:01:23;;;;;;;21.48;10.45;;;7.70;99.90;;;;;;5032597;28;20140;-67
2021/11/19 11:04:09;;;;;;;18.60;9.70;;;7.80;99.90;;;;;;5032362;28;20049;-67
2021/11/19 11:06:41;;;;;;;22.23;10.02;;;7.80;99.90;;;;;;5031444;28;20049;-67
2021/11/19 11:09:19;;;;;;;19.17;9.35;;;7.80;99.90;;;;;;5032146;28;20049;-67
2021/11/19 11:11:54;;;;;;;17.02;9.05;;;7.80;99.90;;;;;;5031944;28;20045;-67
2021/11/19 11:14:21;;;;;;;18.10;8.65;;;7.90;99.90;;;;;;5032585;28;20104;-66
2021/11/19 11:16:50;;;;;;;16.88;8.40;;;7.90;99.90;;;;;;5032243;28;20517;-67
2021/11/19 11:19:23;;;;;;;15.73;7.78;;;8.00;99.90;;;;;;5031847;28;20123;-67
2021/11/19 11:22:03;;;;;;;19.25;7.68;;;8.00;99.90;;;;;;5032259;28;20049;-66
2021/11/19 11:24:33;;;;;;;18.85;7.63;;;8.20;99.90;;;;;;5031961;28;20559;-67
2021/11/19 11:27:14;;;;;;;16.58;8.60;;;8.20;99.90;;;;;;5031732;28;20118;-66
2021/11/19 11:29:58;;;;;;;18.33;8.23;;;8.20;99.90;;;;;;5032570;28;20061;-67
2021/11/19 11:32:38;;;;;;;16.15;7.45;;;8.30;99.90;;;;;;5031678;28;20092;-67
2021/11/19 11:35:17;;;;;;;13.70;6.63;;;8.40;99.90;;;;;;5031695;28;20417;-66
2021/11/19 11:37:57;;;;;;;12.13;5.97;;;8.50;99.90;;;;;;5031196;28;20049;-67
2021/11/19 11:40:28;;;;;;;13.35;6.45;;;8.70;99.90;;;;;;5026440;28;20128;-66
2021/11/19 11:43:17;;;;;;;10.23;5.25;;;8.60;99.90;;;;;;5030741;28;20045;-67
2021/11/19 11:45:47;;;;;;;10.55;5.35;;;9.00;99.90;;;;;;5030639;28;20108;-67
2021/11/19 11:48:24;;;;;;;14.15;5.80;;;8.70;99.90;;;;;;5031182;28;20050;-66
2021/11/19 11:51:03;;;;;;;10.48;4.85;;;8.80;99.90;;;;;;5035021;28;20062;-67
2021/11/19 11:53:40;;;;;;;11.93;6.18;;;8.90;99.90;;;;;;5030496;28;20393;-67
2021/11/19 11:56:19;;;;;;;;;;;9.10;99.90;;;;;;5030776;28;20057;-66
2021/11/19 11:58:52;;;;;;;8.75;5.10;;;9.10;99.90;;;;;;5030654;28;19972;-66
2021/11/19 12:01:35;;;;;;;12.35;5.60;;;9.10;99.90;;;;;;5026700;28;20418;-67
2021/11/19 12:04:07;;;;;;;12.75;5.47;;;9.10;99.90;;;;;;5031041;28;20053;-67
2021/11/19 12:06:42;;;;;;;12.77;5.88;;;8.90;99.90;;;;;;5029848;28;20111;-67
2021/11/19 12:09:16;;;;;;;12.15;5.55;;;9.30;99.90;;;;;;5031019;28;20053;-67
2021/11/19 12:12:18;;;;;;;11.63;5.30;;;9.10;99.90;;;;;;5030849;28;20045;-66
2021/11/19 12:14:51;;;;;;;9.45;5.00;;;8.70;99.90;;;;;;4988380;28;20143;-66
2021/11/19 12:17:34;;;;;;;10.20;5.00;;;8.80;99.90;;;;;;5029972;28;20111;-66
2021/11/19 12:20:07;;;;;;;12.40;5.25;;;9.00;99.90;;;;;;5030829;28;20057;-69
2021/11/19 12:22:40;;;;;;;15.10;6.10;;;9.00;99.90;;;;;;5030508;28;20208;-67
2021/11/19 12:25:34;;;;;;;14.02;6.38;;;9.20;99.90;;;;;;5029828;28;20096;-66
2021/11/19 12:28:03;;;;;;;14.40;7.40;;;9.40;99.90;;;;;;5030627;28;20386;-66
2021/11/19 12:30:33;;;;;;;15.85;6.80;;;9.10;99.90;;;;;;5031790;28;20049;-68
2021/11/19 12:33:05;;;;;;;16.30;7.95;;;9.10;99.90;;;;;;5030803;28;20049;-67
2021/11/19 12:35:35;;;;;;;18.58;8.35;;;9.30;99.90;;;;;;5030477;28;20119;-68
2021/11/19 12:38:08;;;;;;;26.55;9.15;;;9.20;99.90;;;;;;5029902;28;20046;-66
2021/11/19 12:40:45;;;;;;;19.55;9.05;;;9.30;99.90;;;;;;5032102;28;20046;-69
2021/11/19 12:43:37;;;;;;;21.65;9.07;;;9.00;99.90;;;;;;5030142;28;20363;-67
2021/11/19 12:46:16;;;;;;;17.08;7.95;;;8.70;99.90;;;;;;5029834;28;20448;-66
2021/11/19 12:49:22;;;;;;;20.60;9.27;;;8.90;99.90;;;;;;5029126;28;20053;-66
2021/11/19 12:51:57;;;;;;;16.88;8.88;;;9.00;99.90;;;;;;5030081;28;20115;-66
2021/11/19 12:54:42;;;;;;;18.30;7.70;;;9.10;99.90;;;;;;5029554;28;20053;-66
2021/11/19 12:57:39;;;;;;;21.20;8.65;;;9.00;99.90;;;;;;5029674;28;20502;-66
2021/11/19 13:00:20;;;;;;;17.80;8.60;;;9.00;99.90;;;;;;5021436;28;20468;-66
2021/11/19 13:02:49;;;;;;;20.00;8.93;;;9.40;99.90;;;;;;5029732;28;20121;-66
2021/11/19 13:05:23;;;;;;;21.60;9.15;;;9.60;99.90;;;;;;5029262;28;20053;-66
2021/11/19 13:08:01;;;;;;;21.88;9.68;;;9.10;99.90;;;;;;5029597;28;20049;-67
2021/11/19 13:10:40;;;;;;;19.75;9.38;;;8.90;99.90;;;;;;5029626;28;20054;-66
2021/11/19 13:13:33;;;;;;;19.30;8.50;;;8.90;99.90;;;;;;5029223;28;20049;-66
2021/11/19 13:16:31;;;;;;;29.40;9.75;;;8.90;99.90;;;;;;5029013;28;20460;-68
2021/11/19 13:19:00;;;;;;;21.75;10.63;;;8.90;99.90;;;;;;5029268;28;20107;-67
2021/11/19 13:21:47;;;;;;;19.67;8.82;;;8.70;99.90;;;;;;5029186;28;20046;-67
2021/11/19 13:24:49;;;;;;;20.70;10.70;;;8.80;99.90;;;;;;5029109;28;20103;-67
2021/11/19 13:27:44;;;;;;;20.17;9.48;;;9.00;99.90;;;;;;4948624;29;20138;-67
2021/11/19 13:30:44;;;;;;;24.50;10.07;;;8.90;99.90;;;;;;4948808;29;20051;-67
2021/11/19 13:33:20;;;;;;;20.48;9.95;;;8.80;99.90;;;;;;5020349;28;20049;-67
2021/11/19 13:36:39;;;;;;;20.77;10.07;;;8.70;99.90;;;;;;5029589;28;20060;-67
2021/11/19 13:39:32;;;;;;;20.33;10.10;;;8.70;99.90;;;;;;5029316;28;20111;-67
2021/11/19 13:45:53;;;;;;;23.05;10.07;;;8.70;99.90;;;;;;5168178;27;20887;-66
2021/11/19 13:48:32;;;;;;;18.40;8.98;;;8.80;99.90;;;;;;5148791;27;20126;-66
2021/11/19 13:51:28;;;;;;;16.90;9.10;;;8.70;99.90;;;;;;5148284;27;20058;-66
2021/11/19 13:54:14;;;;;;;18.75;8.43;;;8.70;99.90;;;;;;5138342;27;20415;-66
2021/11/19 13:56:44;;;;;;;19.30;8.27;;;8.60;99.90;;;;;;5127079;28;20119;-66
2021/11/19 13:59:19;;;;;;;18.95;8.02;;;8.60;99.90;;;;;;5126945;28;20305;-66
2021/11/19 14:01:53;;;;;;;20.42;8.38;;;8.50;99.90;;;;;;5127059;28;20507;-66
2021/11/19 14:04:30;;;;;;;16.67;7.20;;;8.40;99.90;;;;;;5127141;27;20082;-66
2021/11/19 14:07:04;;;;;;;14.82;7.05;;;8.40;99.90;;;;;;5126424;28;20411;-66
2021/11/19 14:09:42;;;;;;;14.70;7.25;;;8.40;99.90;;;;;;5127776;28;20146;-66
2021/11/19 14:12:20;;;;;;;17.80;7.47;;;8.40;99.90;;;;;;5126794;28;20108;-66
2021/11/19 14:14:49;;;;;;;16.35;7.63;;;8.40;99.90;;;;;;5126192;27;20044;-66
2021/11/19 14:17:41;;;;;;;14.93;6.97;;;8.40;99.90;;;;;;5126897;28;20047;-66
2021/11/19 14:23:08;;;;;;;14.63;6.97;;;8.40;99.90;;;;;;5126724;27;20062;-66
2021/11/19 14:25:35;;;;;;;16.33;6.72;;;8.40;99.90;;;;;;5126715;28;20138;-66
2021/11/19 14:28:05;;;;;;;16.45;7.55;;;8.40;99.90;;;;;;5126400;28;20383;-67
2021/11/19 14:30:37;;;;;;;12.48;6.70;;;8.50;99.90;;;;;;5126992;28;20053;-66
2021/11/19 14:33:13;;;;;;;15.70;6.95;;;8.40;99.90;;;;;;5126647;27;20521;-66
2021/11/19 14:35:48;;;;;;;19.55;7.97;;;8.40;99.90;;;;;;5126225;28;20082;-65
2021/11/19 14:38:23;;;;;;;12.88;5.93;;;8.40;99.90;;;;;;5126477;28;20464;-66
2021/11/19 14:40:59;;;;;;;14.23;6.63;;;8.40;99.90;;;;;;5127181;28;20142;-65
2021/11/19 14:43:27;;;;;;;13.25;6.35;;;8.40;99.90;;;;;;5126331;27;20059;-65
2021/11/19 14:45:57;;;;;;;13.13;7.07;;;8.50;99.90;;;;;;5126141;28;20112;-65
2021/11/19 14:48:27;;;;;;;12.18;6.10;;;8.50;99.90;;;;;;5126006;28;20142;-66
2021/11/19 14:51:04;;;;;;;13.45;6.82;;;8.50;99.90;;;;;;5126746;28;20047;-66
2021/11/19 18:58:51;;;;;;;31.13;15.10;;;7.50;99.90;;;;;;5073275;28;20060;-74
2021/11/19 19:01:21;;;;;;;28.42;13.57;;;7.50;99.90;;;;;;5074038;28;20055;-68
2021/11/19 19:03:49;;;;;;;32.13;14.98;;;7.50;99.90;;;;;;5074280;28;20053;-69
2021/11/19 19:06:19;;;;;;;31.98;15.40;;;7.50;99.90;;;;;;5073344;28;20176;-72
2021/11/19 19:08:47;;;;;;;30.42;14.88;;;7.60;99.90;;;;;;5073782;28;20088;-69
2021/11/19 19:11:17;;;;;;;28.33;13.63;;;7.50;99.90;;;;;;5073888;28;20060;-68
2021/11/19 19:13:45;;;;;;;28.52;14.13;;;7.50;99.90;;;;;;5073525;28;20066;-70
2021/11/19 19:16:16;;;;;;;29.75;14.23;;;7.50;99.90;;;;;;5072921;28;20052;-74
2021/11/19 19:18:44;;;;;;;27.77;14.32;;;7.50;99.90;;;;;;5074568;28;20071;-68
2021/11/19 19:21:12;;;;;;;27.08;14.25;;;7.60;99.90;;;;;;5073213;28;20052;-69
2021/11/19 19:23:39;;;;;;;30.73;14.77;;;7.50;99.90;;;;;;5073153;28;20576;-69
2021/11/19 19:26:09;;;;;;;27.65;14.77;;;7.50;99.90;;;;;;5072811;28;20102;-69
2021/11/19 19:28:44;;;;;;;27.08;13.85;;;7.50;99.90;;;;;;5073595;28;20138;-69
2021/11/19 19:31:17;;;;;;;35.28;14.88;;;7.50;99.90;;;;;;5073575;28;20523;-68
2021/11/19 19:33:45;;;;;;;30.88;14.02;;;7.50;99.90;;;;;;5073051;28;20052;-68
2021/11/19 19:36:19;;;;;;;27.33;13.82;;;7.50;99.90;;;;;;5072317;28;20056;-69
2021/11/19 19:38:47;;;;;;;28.02;14.63;;;7.50;99.90;;;;;;5074564;28;20052;-69
2021/11/19 19:41:18;;;;;;;29.40;14.70;;;7.50;99.90;;;;;;5073291;28;20157;-68
2021/11/19 19:43:49;;;;;;;29.60;14.07;;;7.50;99.90;;;;;;5073401;28;20057;-69
2021/11/19 19:46:20;;;;;;;28.17;13.50;;;7.50;99.90;;;;;;5073289;28;20113;-70
2021/11/19 19:48:49;;;;;;;31.25;15.20;;;7.50;99.90;;;;;;5073621;28;20114;-70
2021/11/19 19:51:17;;;;;;;29.88;14.20;;;7.50;99.90;;;;;;5073870;28;20087;-68
2021/11/19 19:53:47;;;;;;;25.52;13.02;;;7.50;99.90;;;;;;5073565;28;20052;-67
2021/11/19 19:56:17;;;;;;;33.70;14.05;;;7.50;99.90;;;;;;5072338;28;20056;-69
2021/11/19 19:58:44;;;;;;;29.95;14.20;;;7.50;99.90;;;;;;5072865;28;20052;-69
2021/11/19 20:01:17;;;;;;;26.33;12.73;;;7.60;99.90;;;;;;5073246;28;20056;-69
2021/11/19 20:03:46;;;;;;;24.95;13.40;;;7.60;99.90;;;;;;5072850;28;20056;-69
2021/11/19 20:06:15;;;;;;;22.42;12.55;;;7.60;99.90;;;;;;5072152;28;20363;-69
2021/11/19 20:08:42;;;;;;;24.40;12.10;;;7.60;99.90;;;;;;5072918;28;20504;-72
2021/11/19 20:11:09;;;;;;;48.45;14.50;;;7.60;99.90;;;;;;5072622;28;20052;-69
2021/11/19 20:13:37;;;;;;;23.55;12.90;;;7.60;99.90;;;;;;5072897;28;20126;-69
2021/11/19 20:16:05;;;;;;;25.67;12.80;;;7.60;99.90;;;;;;5072254;28;20135;-69
2021/11/19 20:18:32;;;;;;;22.65;12.88;;;7.70;99.90;;;;;;5072360;28;20522;-68
2021/11/19 20:21:10;;;;;;;25.13;12.25;;;7.70;99.90;;;;;;5072636;28;20512;-69
2021/11/19 20:23:38;;;;;;;23.98;13.30;;;7.70;99.90;;;;;;5072667;28;20041;-68
2021/11/19 20:26:10;;;;;;;24.48;12.77;;;7.70;99.90;;;;;;5071842;28;20117;-68
2021/11/19 20:28:38;;;;;;;22.65;12.48;;;7.70;99.90;;;;;;5072759;28;20503;-68
2021/11/19 20:31:09;;;;;;;27.20;13.25;;;7.70;99.90;;;;;;5072379;28;20080;-69
2021/11/19 20:33:38;;;;;;;27.08;13.82;;;7.70;99.90;;;;;;5072208;28;20113;-69
2021/11/19 20:36:08;;;;;;;26.17;12.77;;;7.70;99.90;;;;;;5071584;28;20060;-69
2021/11/19 20:38:36;;;;;;;21.77;11.40;;;7.70;99.90;;;;;;5072765;28;20377;-71
2021/11/19 20:41:07;;;;;;;21.73;11.05;;;7.70;99.90;;;;;;5073239;28;20053;-72
2021/11/19 20:43:34;;;;;;;22.95;11.35;;;7.80;99.90;;;;;;5073921;28;20098;-69
2021/11/19 20:46:06;;;;;;;19.92;11.07;;;7.70;99.90;;;;;;5072829;28;20098;-69
2021/11/19 20:48:34;;;;;;;22.00;11.60;;;7.80;99.90;;;;;;5071904;28;20117;-70
2021/11/19 20:51:04;;;;;;;23.58;10.73;;;7.80;99.90;;;;;;5071807;28;20052;-69
2021/11/19 20:53:32;;;;;;;20.02;10.27;;;7.80;99.90;;;;;;5085276;22;20040;-66
2021/11/19 20:56:03;;;;;;;21.67;11.25;;;7.90;99.90;;;;;;5070248;28;20098;-67
2021/11/19 20:58:32;;;;;;;23.92;11.73;;;7.80;99.90;;;;;;5071435;28;20056;-66
2021/11/19 21:01:09;;;;;;;23.60;11.80;;;7.80;99.90;;;;;;5070779;28;20102;-66
2021/11/19 21:03:37;;;;;;;23.92;13.00;;;7.80;99.90;;;;;;5070672;28;20503;-66
2021/11/19 21:06:04;;;;;;;26.17;13.13;;;7.80;99.90;;;;;;5070107;28;20048;-66
2021/11/19 21:08:32;;;;;;;28.02;12.90;;;7.90;99.90;;;;;;5070915;28;20496;-66
2021/11/19 21:10:59;;;;;;;27.50;14.10;;;7.90;99.90;;;;;;5070631;28;20496;-66
2021/11/19 21:13:27;;;;;;;25.77;13.52;;;7.90;99.90;;;;;;5070770;28;20105;-66
2021/11/19 21:15:54;;;;;;;27.92;13.55;;;7.90;99.90;;;;;;5069714;28;20404;-66
2021/11/19 21:18:24;;;;;;;28.73;14.27;;;7.80;99.90;;;;;;5070930;28;20108;-67
2021/11/19 21:20:55;;;;;;;26.30;13.52;;;7.80;99.90;;;;;;5070342;28;20435;-66
2021/11/19 21:23:22;;;;;;;28.15;14.40;;;7.80;99.90;;;;;;5070715;28;20058;-66
2021/11/19 21:25:54;;;;;;;29.08;15.30;;;7.80;99.90;;;;;;5069013;28;20053;-66
2021/11/19 21:28:22;;;;;;;27.35;14.10;;;7.80;99.90;;;;;;5069789;28;20385;-66
2021/11/19 21:30:52;;;;;;;27.35;15.38;;;7.80;99.90;;;;;;5069625;28;20048;-66
2021/11/19 21:33:21;;;;;;;29.63;15.60;;;7.70;99.90;;;;;;5069779;28;20412;-66
2021/11/19 21:35:50;;;;;;;28.50;14.75;;;7.70;99.90;;;;;;5068760;28;20051;-66
2021/11/19 21:38:18;;;;;;;31.08;15.38;;;7.70;99.90;;;;;;5069946;28;20118;-66
2021/11/19 21:40:57;;;;;;;33.50;16.02;;;7.60;99.90;;;;;;5069555;28;20049;-66
2021/11/19 21:43:26;;;;;;;32.70;16.50;;;7.70;99.90;;;;;;5069616;28;20052;-66
2021/11/19 21:45:56;;;;;;;33.20;16.48;;;7.60;99.90;;;;;;5068417;28;20048;-66
2021/11/19 21:48:23;;;;;;;33.85;17.48;;;7.60;99.90;;;;;;5069684;28;20064;-66
2021/11/19 21:50:54;;;;;;;35.08;16.70;;;7.60;99.90;;;;;;5069490;28;20054;-66
2021/11/19 21:53:26;;;;;;;31.33;16.63;;;7.60;99.90;;;;;;5070249;28;20370;-66
2021/11/19 21:56:09;;;;;;;34.53;16.33;;;7.60;99.90;;;;;;5069090;28;20047;-66
2021/11/19 21:58:50;;;;;;;32.78;16.67;;;7.60;99.90;;;;;;5071695;28;20066;-66
2021/11/19 22:01:20;;;;;;;28.75;15.27;;;7.60;99.90;;;;;;5070541;28;20060;-66
2021/11/19 22:03:48;;;;;;;30.92;15.70;;;7.60;99.90;;;;;;5069364;28;20048;-66
2021/11/19 22:06:18;;;;;;;31.80;15.52;;;7.60;99.90;;;;;;5071419;28;20056;-66
2021/11/19 22:08:46;;;;;;;28.45;14.98;;;7.60;99.90;;;;;;5074340;28;20404;-66
2021/11/19 22:11:15;;;;;;;33.30;15.27;;;7.70;99.90;;;;;;5074196;28;20044;-66
2021/11/19 22:13:43;;;;;;;28.77;15.55;;;7.70;99.90;;;;;;5074179;28;20044;-66
2021/11/19 22:16:12;;;;;;;28.17;13.90;;;7.70;99.90;;;;;;5074199;28;20056;-66
2021/11/19 22:18:44;;;;;;;36.00;16.13;;;7.80;99.90;;;;;;5073721;28;20087;-66
2021/11/19 22:21:14;;;;;;;27.33;14.38;;;7.80;99.90;;;;;;5074295;28;20109;-67
2021/11/19 22:23:42;;;;;;;32.95;15.98;;;7.80;99.90;;;;;;5073634;28;20056;-66
2021/11/19 22:26:10;;;;;;;25.45;14.40;;;7.70;99.90;;;;;;5073591;28;20125;-66
2021/11/19 22:28:41;;;;;;;29.95;15.35;;;7.80;99.90;;;;;;5073723;28;20048;-66
2021/11/19 22:31:11;;;;;;;29.10;14.73;;;7.80;99.90;;;;;;5073482;28;20068;-66
2021/11/19 22:33:38;;;;;;;28.48;14.90;;;7.80;99.90;;;;;;5073374;28;20056;-66
2021/11/19 22:36:06;;;;;;;27.02;14.48;;;7.80;99.90;;;;;;5073158;28;20057;-66
2021/11/19 22:38:36;;;;;;;29.90;16.13;;;7.80;99.90;;;;;;5073560;28;20408;-66
2021/11/19 22:41:20;;;;;;;30.08;14.82;;;7.80;99.90;;;;;;5073583;28;20404;-66
2021/11/19 22:43:50;;;;;;;32.83;16.75;;;7.80;99.90;;;;;;5073233;28;20454;-67
2021/11/19 22:46:17;;;;;;;32.38;16.60;;;7.70;99.90;;;;;;5072868;28;20049;-66
2021/11/19 22:48:46;;;;;;;32.53;16.95;;;7.80;99.90;;;;;;5073046;28;20045;-66
2021/11/19 22:51:17;;;;;;;37.30;17.50;;;7.80;99.90;;;;;;5073300;28;20044;-66
2021/11/19 22:53:48;;;;;;;36.42;18.23;;;7.80;99.90;;;;;;5072297;28;20058;-67
2021/11/19 22:56:16;;;;;;;35.80;17.38;;;7.80;99.90;;;;;;5072200;28;20056;-66
2021/11/19 22:58:45;;;;;;;32.00;16.55;;;7.80;99.90;;;;;;5072874;28;20053;-66
2021/11/19 23:01:16;;;;;;;31.65;17.08;;;7.80;99.90;;;;;;5072453;28;20044;-66
2021/11/19 23:03:45;;;;;;;36.15;17.63;;;7.80;99.90;;;;;;5071912;28;20052;-66
2021/11/19 23:06:13;;;;;;;35.22;16.80;;;7.70;99.90;;;;;;5071361;28;20569;-66
2021/11/19 23:08:41;;;;;;;34.33;17.25;;;7.70;99.90;;;;;;5072203;28;20056;-66
2021/11/19 23:11:11;;;;;;;36.88;17.70;;;7.70;99.90;;;;;;5072559;28;20240;-66
2021/11/19 23:13:47;;;;;;;37.38;18.05;;;7.70;99.90;;;;;;5072278;28;20109;-66
2021/11/19 23:16:22;;;;;;;34.78;17.00;;;7.60;99.90;;;;;;5071569;28;20135;-66
2021/11/19 23:18:49;;;;;;;32.33;17.02;;;7.70;99.90;;;;;;5071915;28;20060;-66
2021/11/19 23:21:19;;;;;;;32.65;16.80;;;7.60;99.90;;;;;;5072478;28;20052;-66
2021/11/19 23:23:47;;;;;;;36.53;17.33;;;7.60;99.90;;;;;;5069625;28;20056;-66
2021/11/19 23:26:16;;;;;;;39.90;17.20;;;7.60;99.90;;;;;;5066622;28;20053;-66
2021/11/19 23:28:47;;;;;;;32.97;16.23;;;7.70;99.90;;;;;;5067391;28;20051;-66
2021/11/19 23:31:25;;;;;;;33.70;16.65;;;7.70;99.90;;;;;;5067639;28;20054;-66